Time;durP1;ratioP1;P1;durP2;ratioP2;P2;SDS_P1;SDS_P2;PMS_P1;PMS_P2;Temp;Humidity;BMP_temperature;BMP_pressure;BME280_temperature;BME280_humidity;BME280_pressure;Samples;Min_cycle;Max_cycle;Signal;HPM_P1;HPM_P2
2022/05/26 00:00:17;;;;;;;;;;;;;;;10.79;100.00;96323.78;1026965;28;19910;-74
2022/05/26 00:00:47;;;;;;;;;;;;;;;10.77;100.00;96318.78;1027023;28;19922;-76
2022/05/26 00:01:18;;;;;;;;;;;;;;;10.76;100.00;96319.81;1034996;28;19917;-77
2022/05/26 00:01:48;;;;;;;;;;;;;;;10.76;100.00;96321.66;1034982;28;20355;-73
2022/05/26 00:02:18;;;;;;;;;;;;;;;10.75;100.00;96320.88;1031054;28;19949;-73
2022/05/26 00:02:49;;;;;;;;;;;;;;;10.72;100.00;96318.72;1031022;28;19925;-74
2022/05/26 00:03:19;;;;;;;;;;;;;;;10.70;100.00;96323.47;1030810;28;19914;-76
2022/05/26 00:03:49;;;;;;;;;;;;;;;10.68;100.00;96322.91;1030931;28;19961;-74
2022/05/26 00:04:20;;;;;;;;;;;;;;;10.67;100.00;96323.16;1026905;28;20288;-75
2022/05/26 00:04:50;;;;;;;;;;;;;;;10.66;100.00;96318.94;1023044;29;20388;-75
2022/05/26 00:05:20;;;;;;;;;;;;;;;10.63;100.00;96317.63;1026748;28;20324;-74
2022/05/26 00:05:51;;;;;;;;;;;;;;;10.62;100.00;96319.44;1026385;28;20045;-73
2022/05/26 00:06:22;;;;;;;;;;;;;;;10.61;100.00;96315.22;1027016;28;19918;-75
2022/05/26 00:06:52;;;;;;;;;;;;;;;10.59;100.00;96319.91;1026954;28;19961;-74
2022/05/26 00:07:22;;;;;;;;;;;;;;;10.59;100.00;96321.75;1022627;28;20587;-75
2022/05/26 00:07:53;;;;;;;;;;;;;;;10.57;100.00;96319.38;1023125;29;19918;-74
2022/05/26 00:08:23;;;;;;;;;;;;;;;10.55;100.00;96313.59;1018883;28;19920;-73
2022/05/26 00:08:53;;;;;;;;;;;;;;;10.59;100.00;96319.91;1027122;28;19914;-73
2022/05/26 00:09:24;;;;;;;;;;;;;;;10.57;100.00;96322.00;1032069;28;19914;-74
2022/05/26 00:09:54;;;;;;;;;;;;;;;10.56;100.00;96317.81;1034328;28;19951;-75
2022/05/26 00:10:24;;;;;;;;;;;;;;;10.55;100.00;96321.47;1026867;28;19918;-74
2022/05/26 00:10:55;;;;;;;;;;;;;;;10.56;100.00;96315.19;1026992;28;19929;-73
2022/05/26 00:11:29;;;;;;;;;;;;;;;10.56;100.00;96314.38;1026809;28;19914;-73
2022/05/26 00:12:00;;;;;;;;;;;;;;;10.56;100.00;96315.19;1027278;28;20540;-75
2022/05/26 00:12:33;;;;;;;;;;;;;;;10.56;100.00;96314.38;1027537;28;20389;-75
2022/05/26 00:13:05;;;;;;;;;;;;;;;10.54;100.00;96311.22;1022963;29;19911;-73
2022/05/26 00:13:36;;;;;;;;;;;;;;;10.52;100.00;96310.66;1022009;29;19923;-74
2022/05/26 00:14:07;;;;;;;;;;;;;;;10.51;100.00;96315.13;1020275;28;19915;-75
2022/05/26 00:14:40;;;;;;;;;;;;;;;10.53;100.00;96314.88;1027836;28;20318;-74
2022/05/26 00:15:11;;;;;;;;;;;;;;;10.52;100.00;96319.31;1026758;28;20001;-74
2022/05/26 00:15:41;;;;;;;;;;;;;;;10.52;100.00;96308.84;1026845;28;19918;-73
2022/05/26 00:16:11;;;;;;;;;;;;;;;10.51;100.00;96315.13;1027419;28;20372;-73
2022/05/26 00:16:43;;;;;;;;;;;;;;;10.50;100.00;96316.19;1026767;28;20014;-73
2022/05/26 00:17:13;;;;;;;;;;;;;;;10.50;100.00;96315.38;1030988;28;19913;-73
2022/05/26 00:17:43;;;;;;;;;;;;;;;10.43;100.00;96304.28;1026658;28;19918;-73
2022/05/26 00:18:14;;;;;;;;;;;;;;;10.45;100.00;96313.47;1023108;28;19922;-75
2022/05/26 00:18:44;;;;;;;;;;;;;;;10.45;100.00;96313.47;1026741;28;19918;-70
2022/05/26 00:19:15;;;;;;;;;;;;;;;10.44;100.00;96309.28;1023098;28;19997;-72
2022/05/26 00:19:46;;;;;;;;;;;;;;;10.42;100.00;96313.97;1022355;28;19921;-73
2022/05/26 00:20:16;;;;;;;;;;;;;;;10.43;100.00;96314.75;1030920;28;19925;-73
2022/05/26 00:20:46;;;;;;;;;;;;;;;10.43;100.00;96322.63;1031225;28;20056;-74
2022/05/26 00:21:16;;;;;;;;;;;;;;;10.40;100.00;96313.44;1035380;28;20481;-74
2022/05/26 00:21:49;;;;;;;;;;;;;;;10.40;100.00;96316.06;1027483;28;19918;-74
2022/05/26 00:22:20;;;;;;;;;;;;;;;10.41;100.00;96314.25;1023740;29;19914;-73
2022/05/26 00:22:50;;;;;;;;;;;;;;;10.43;100.00;96315.59;1016169;29;20381;-73
2022/05/26 00:23:21;;;;;;;;;;;;;;;10.44;100.00;96319.78;1020241;29;19962;-72
2022/05/26 00:23:53;;;;;;;;;;;;;;;10.49;100.00;96314.56;1023603;28;20538;-74
2022/05/26 00:24:23;;;;;;;;;;;;;;;10.49;100.00;96314.56;1024262;28;19926;-74
2022/05/26 00:24:53;;;;;;;;;;;;;;;10.51;100.00;96314.34;1027854;28;19960;-74
2022/05/26 00:25:27;;;;;;;;;;;;;;;10.49;100.00;96319.81;1023920;28;20292;-75
2022/05/26 00:25:57;;;;;;;;;;;;;;;10.46;100.00;96311.66;1030554;28;20646;-74
2022/05/26 00:26:28;;;;;;;;;;;;;;;10.43;100.00;96320.84;1032157;28;19928;-73
2022/05/26 00:26:58;;;;;;;;;;;;;;;10.44;100.00;96314.53;1036296;28;19917;-75
2022/05/26 00:27:31;;;;;;;;;;;;;;;10.43;100.00;96310.34;1039605;28;20621;-73
2022/05/26 00:28:01;;;;;;;;;;;;;;;10.42;100.00;96313.97;1039757;28;19921;-73
2022/05/26 00:28:32;;;;;;;;;;;;;;;10.43;100.00;96320.84;1039977;28;19917;-73
2022/05/26 00:29:03;;;;;;;;;;;;;;;10.40;100.00;96316.06;1035580;28;19917;-74
2022/05/26 00:29:34;;;;;;;;;;;;;;;10.39;100.00;96319.72;1027450;28;19926;-74
2022/05/26 00:30:04;;;;;;;;;;;;;;;10.40;100.00;96317.91;1027131;28;19931;-74
2022/05/26 00:30:37;;;;;;;;;;;;;;;10.37;100.00;96308.69;1026347;28;19926;-74
2022/05/26 00:31:08;;;;;;;;;;;;;;;10.36;100.00;96313.16;1028226;28;19918;-74
2022/05/26 00:31:38;;;;;;;;;;;;;;;10.36;100.00;96320.22;1024281;28;19970;-75
2022/05/26 00:32:09;;;;;;;;;;;;;;;10.36;100.00;96314.97;1027921;28;20017;-71
2022/05/26 00:32:39;;;;;;;;;;;;;;;10.38;100.00;96318.94;1027738;28;20005;-72
2022/05/26 00:33:09;;;;;;;;;;;;;;;10.39;100.00;96314.47;1027311;28;19929;-72
2022/05/26 00:33:40;;;;;;;;;;;;;;;10.50;100.00;96320.63;1027580;28;19918;-73
2022/05/26 00:34:10;;;;;;;;;;;;;;;10.58;100.00;96320.97;1027466;28;19980;-75
2022/05/26 00:34:40;;;;;;;;;;;;;;;10.53;100.00;96314.88;1031769;28;19953;-76
2022/05/26 00:35:11;;;;;;;;;;;;;;;10.52;100.00;96318.53;1031669;28;19921;-73
2022/05/26 00:35:42;;;;;;;;;;;;;;;10.50;100.00;96316.19;1027792;28;20017;-74
2022/05/26 00:36:13;;;;;;;;;;;;;;;10.47;100.00;96311.41;1027532;28;19925;-75
2022/05/26 00:36:44;;;;;;;;;;;;;;;10.47;100.00;96310.63;1020264;28;20361;-73
2022/05/26 00:37:15;;;;;;;;;;;;;;;10.45;100.00;96315.31;1016196;29;20042;-75
2022/05/26 00:37:50;;;;;;;;;;;;;;;10.45;100.00;96313.47;1019667;29;19915;-73
2022/05/26 00:38:20;;;;;;;;;;;;;;;10.46;100.00;96312.47;1021235;28;19966;-75
2022/05/26 00:38:50;;;;;;;;;;;;;;;10.46;100.00;96315.09;1025006;28;19917;-74
2022/05/26 00:39:24;;;;;;;;;;;;;;;10.47;100.00;96321.13;1032845;28;19918;-72
2022/05/26 00:39:58;;;;;;;;;;;;;;;10.54;100.00;96311.22;1031017;28;19953;-74
2022/05/26 00:40:28;;;;;;;;;;;;;;;10.58;100.00;96312.31;1028293;28;20608;-74
2022/05/26 00:41:02;;;;;;;;;;;;;;;10.60;100.00;96315.50;1027241;28;20051;-74
2022/05/26 00:41:33;;;;;;;;;;;;;;;10.65;100.00;96317.34;1020615;29;19911;-74
2022/05/26 00:42:04;;;;;;;;;;;;;;;10.61;100.00;96317.84;1024083;28;20809;-74
2022/05/26 00:42:34;;;;;;;;;;;;;;;10.60;100.00;96323.34;1023620;29;19917;-74
2022/05/26 00:43:04;;;;;;;;;;;;;;;10.57;100.00;96311.53;1023718;28;20064;-73
2022/05/26 00:43:35;;;;;;;;;;;;;;;10.61;100.00;96311.81;1027679;28;20021;-75
2022/05/26 00:44:05;;;;;;;;;;;;;;;10.68;100.00;96316.88;1027547;28;19953;-72
2022/05/26 00:44:36;;;;;;;;;;;;;;;10.69;100.00;96319.22;1023457;28;20428;-74
2022/05/26 00:45:06;;;;;;;;;;;;;;;10.69;100.00;96318.44;1023647;28;20488;-73
2022/05/26 00:45:41;;;;;;;;;;;;;;;10.71;100.00;96321.63;1023918;28;19914;-76
2022/05/26 00:46:37;;;;;;;;;;;;;;;10.77;100.00;96321.41;1028273;28;19960;-72
2022/05/26 00:47:14;;;;;;;;;;;;;;;10.78;100.00;96316.94;1019293;29;19918;-73
2022/05/26 00:47:44;;;;;;;;;;;;;;;10.73;100.00;96316.91;1026230;28;19915;-75
2022/05/26 00:48:15;;;;;;;;;;;;;;;10.77;100.00;96320.63;1031606;28;19914;-74
2022/05/26 00:48:52;;;;;;;;;;;;;;;10.82;100.00;96312.78;1019327;29;19915;-75
2022/05/26 00:49:25;;;;;;;;;;;;;;;10.80;100.00;96313.03;1023480;29;20582;-74
2022/05/26 00:50:14;;;;;;;;;;;;;;;10.79;100.00;96316.69;1018987;29;19953;-75
2022/05/26 00:50:46;;;;;;;;;;;;;;;10.83;100.00;96315.19;1023445;29;19914;-74
2022/05/26 00:51:16;;;;;;;;;;;;;;;10.79;100.00;96308.81;1022598;28;19915;-75
2022/05/26 00:51:47;;;;;;;;;;;;;;;10.76;100.00;96313.78;1022791;29;19914;-73
2022/05/26 00:52:19;;;;;;;;;;;;;;;10.72;100.00;96310.84;1019806;29;19914;-73
2022/05/26 00:52:51;;;;;;;;;;;;;;;10.68;100.00;96311.63;1019695;29;19919;-73
2022/05/26 00:53:22;;;;;;;;;;;;;;;10.70;100.00;96315.59;1024524;28;20013;-73
2022/05/26 00:53:54;;;;;;;;;;;;;;;10.70;100.00;96317.41;1024281;28;19915;-74
2022/05/26 00:54:24;;;;;;;;;;;;;;;10.70;100.00;96315.59;1027503;28;19926;-75
2022/05/26 00:54:55;;;;;;;;;;;;;;;10.67;100.00;96317.91;1019481;29;20007;-74
2022/05/26 00:55:26;;;;;;;;;;;;;;;10.63;100.00;96309.75;1021151;28;20321;-75
2022/05/26 00:55:58;;;;;;;;;;;;;;;10.65;100.00;96312.09;1027844;28;19929;-74
2022/05/26 00:56:33;;;;;;;;;;;;;;;10.61;100.00;96311.81;1023791;28;20396;-73
2022/05/26 00:57:24;;;;;;;;;;;;;;;10.54;100.00;96312.00;1029428;28;19954;-74
2022/05/26 00:58:05;;;;;;;;;;;;;;;10.50;100.00;96318.81;1030887;28;20400;-73
2022/05/26 00:58:36;;;;;;;;;;;;;;;10.47;100.00;96311.41;1031093;28;19987;-75
2022/05/26 00:59:09;;;;;;;;;;;;;;;10.50;100.00;96305.69;1031448;28;20387;-73
2022/05/26 00:59:44;;;;;;;;;;;;;;;10.47;100.00;96311.41;1026911;28;19918;-74
2022/05/26 01:00:16;;;;;;;;;;;;;;;10.46;100.00;96309.03;1028735;28;19976;-72
2022/05/26 01:00:46;;;;;;;;;;;;;;;10.50;100.00;96316.19;1031606;28;19922;-73
2022/05/26 01:01:16;;;;;;;;;;;;;;;10.44;100.00;96311.91;1027861;28;19989;-75
2022/05/26 01:01:46;;;;;;;;;;;;;;;10.44;100.00;96311.91;1027173;28;19933;-75
2022/05/26 01:02:17;;;;;;;;;;;;;;;10.43;100.00;96309.53;1023602;29;19927;-74
2022/05/26 01:02:49;;;;;;;;;;;;;;;10.42;100.00;96313.97;1023470;28;19915;-73
2022/05/26 01:03:27;;;;;;;;;;;;;;;10.45;100.00;96312.69;1022220;28;19915;-75
2022/05/26 01:03:58;;;;;;;;;;;;;;;10.46;100.00;96314.28;1027685;28;19961;-74
2022/05/26 01:04:31;;;;;;;;;;;;;;;10.43;100.00;96310.34;1020961;29;19919;-73
2022/05/26 01:05:03;;;;;;;;;;;;;;;10.39;100.00;96309.22;1024923;28;19922;-73
2022/05/26 01:05:52;;;;;;;;;;;;;;;10.42;100.00;96313.97;1024112;28;20377;-75
2022/05/26 01:06:28;;;;;;;;;;;;;;;10.45;100.00;96308.25;1029803;28;19964;-74
2022/05/26 01:07:05;;;;;;;;;;;;;;;10.37;100.00;96311.31;1023553;29;19919;-73
2022/05/26 01:07:38;;;;;;;;;;;;;;;10.39;100.00;96306.59;1027510;28;19925;-72
2022/05/26 01:08:10;;;;;;;;;;;;;;;10.40;100.00;96304.78;1025402;28;20392;-75
2022/05/26 01:08:43;;;;;;;;;;;;;;;10.39;100.00;96309.22;1022563;28;19945;-74
2022/05/26 01:09:13;;;;;;;;;;;;;;;10.38;100.00;96308.44;1027621;28;19918;-74
2022/05/26 01:09:44;;;;;;;;;;;;;;;10.37;100.00;96306.84;1023424;28;20412;-74
2022/05/26 01:10:14;;;;;;;;;;;;;;;10.34;100.00;96302.09;1020238;28;20334;-73
2022/05/26 01:10:44;;;;;;;;;;;;;;;10.28;100.00;96299.66;1026312;28;19918;-73
2022/05/26 01:11:15;;;;;;;;;;;;;;;10.28;100.00;96302.28;1019620;29;19918;-73
2022/05/26 01:11:48;;;;;;;;;;;;;;;10.23;100.00;96304.81;1023468;28;19919;-73
2022/05/26 01:12:18;;;;;;;;;;;;;;;10.20;100.00;96305.34;1031632;28;20376;-73
2022/05/26 01:12:48;;;;;;;;;;;;;;;10.23;100.00;96310.06;1027806;28;19922;-73
2022/05/26 01:13:19;;;;;;;;;;;;;;;10.20;100.00;96311.38;1023518;28;19930;-73
2022/05/26 01:13:51;;;;;;;;;;;;;;;10.08;100.00;96293.13;1020200;29;19918;-72
2022/05/26 01:14:23;;;;;;;;;;;;;;;10.17;100.00;96308.44;1019842;29;19930;-73
2022/05/26 01:15:03;;;;;;;;;;;;;;;10.19;100.00;96317.63;1020742;28;20412;-73
2022/05/26 01:15:35;;;;;;;;;;;;;;;10.26;100.00;96318.28;1021514;29;20587;-73
2022/05/26 01:16:08;;;;;;;;;;;;;;;10.28;100.00;96310.94;1027376;28;20544;-74
2022/05/26 01:16:48;;;;;;;;;;;;;;;10.27;100.00;96313.84;1027521;28;19941;-73
2022/05/26 01:17:20;;;;;;;;;;;;;;;10.30;100.00;96313.34;1023602;29;20344;-78
2022/05/26 01:18:10;;;;;;;;;;;;;;;10.31;100.00;96317.53;1025398;28;19926;-76
2022/05/26 01:18:42;;;;;;;;;;;;;;;10.25;100.00;96314.03;1031401;28;19918;-74
2022/05/26 01:19:31;;;;;;;;;;;;;;;10.26;100.00;96314.84;1030773;28;20358;-73
2022/05/26 01:20:07;;;;;;;;;;;;;;;10.20;100.00;96313.19;1026558;28;20303;-73
2022/05/26 01:20:40;;;;;;;;;;;;;;;10.17;100.00;96317.09;1019598;29;19926;-73
2022/05/26 01:21:40;;;;;;;;;;;;;;;10.12;100.00;96315.19;1022723;29;20005;-74
2022/05/26 01:22:29;;;;;;;;;;;;;;;10.23;100.00;96320.56;1023110;28;19918;-74
2022/05/26 01:23:17;;;;;;;;;;;;;;;10.16;100.00;96318.16;1033447;28;20702;-75
2022/05/26 01:23:56;;;;;;;;;;;;;;;9.99;100.00;96302.44;1031315;28;19924;-73
2022/05/26 01:24:42;;;;;;;;;;;;;;;10.08;100.00;96319.34;1023379;29;19914;-74
2022/05/26 01:25:12;;;;;;;;;;;;;;;10.15;100.00;96319.94;1027596;28;19968;-73
2022/05/26 01:25:46;;;;;;;;;;;;;;;10.17;100.00;96319.72;1031562;28;19964;-75
2022/05/26 01:26:31;;;;;;;;;;;;;;;10.15;100.00;96321.78;1033778;28;20391;-72
2022/05/26 01:27:02;;;;;;;;;;;;;;;10.15;100.00;96322.56;1035684;28;19905;-73
2022/05/26 01:27:33;;;;;;;;;;;;;;;10.18;100.00;96317.88;1031527;28;19914;-72
2022/05/26 01:28:04;;;;;;;;;;;;;;;10.11;100.00;96324.09;1029580;28;19929;-74
2022/05/26 01:29:00;;;;;;;;;;;;;;;10.12;100.00;96323.06;1031519;28;19925;-73
2022/05/26 01:29:39;;;;;;;;;;;;;;;10.13;100.00;96324.66;1022718;29;20021;-73
2022/05/26 01:30:21;;;;;;;;;;;;;;;10.12;100.00;96320.44;1028604;28;19918;-72
2022/05/26 01:30:56;;;;;;;;;;;;;;;10.14;100.00;96323.63;1035513;28;20520;-75
2022/05/26 01:31:36;;;;;;;;;;;;;;;10.17;100.00;96326.81;1027631;28;20012;-74
2022/05/26 01:32:25;;;;;;;;;;;;;;;10.13;100.00;96322.03;1027089;28;20372;-75
2022/05/26 01:33:15;;;;;;;;;;;;;;;10.11;100.00;96326.72;1022864;29;20012;-72
2022/05/26 01:34:04;;;;;;;;;;;;;;;10.12;100.00;96325.69;1032492;28;20408;-75
2022/05/26 01:34:42;;;;;;;;;;;;;;;10.08;100.00;96324.59;1032179;28;19922;-74
2022/05/26 01:35:23;;;;;;;;;;;;;;;10.09;100.00;96325.38;1035693;28;19921;-73
2022/05/26 01:35:59;;;;;;;;;;;;;;;10.06;100.00;96325.88;1031495;28;19918;-74
2022/05/26 01:36:47;;;;;;;;;;;;;;;10.07;100.00;96336.13;1034850;28;19917;-72
2022/05/26 01:37:25;;;;;;;;;;;;;;;10.06;100.00;96337.19;1023356;29;19918;-74
2022/05/26 01:38:14;;;;;;;;;;;;;;;10.10;100.00;96327.78;1026845;28;20436;-72
2022/05/26 01:38:50;;;;;;;;;;;;;;;10.10;100.00;96332.22;1027366;28;20422;-73
2022/05/26 01:39:37;;;;;;;;;;;;;;;10.10;100.00;96338.25;1031182;28;19932;-75
2022/05/26 01:40:09;;;;;;;;;;;;;;;10.12;100.00;96338.78;1027315;28;19925;-73
2022/05/26 01:40:58;;;;;;;;;;;;;;;10.11;100.00;96337.22;1027458;28;19925;-74
2022/05/26 01:41:34;;;;;;;;;;;;;;;10.17;100.00;96334.66;1023350;29;19966;-74
2022/05/26 01:42:14;;;;;;;;;;;;;;;10.18;100.00;96338.88;1030589;28;19914;-76
2022/05/26 01:42:44;;;;;;;;;;;;;;;10.15;100.00;96335.69;1028470;28;19914;-74
2022/05/26 01:43:16;;;;;;;;;;;;;;;10.13;100.00;96340.41;1033380;28;20017;-73
2022/05/26 01:43:54;;;;;;;;;;;;;;;10.12;100.00;96341.41;1031508;28;19925;-73
2022/05/26 01:44:43;;;;;;;;;;;;;;;10.07;100.00;96338.75;1024569;28;19925;-73
2022/05/26 01:45:17;;;;;;;;;;;;;;;10.04;100.00;96343.69;1023325;28;20416;-73
2022/05/26 01:45:57;;;;;;;;;;;;;;;10.04;100.00;96344.47;1019361;29;19923;-74
2022/05/26 01:46:29;;;;;;;;;;;;;;;9.99;100.00;96347.03;1023255;29;19928;-74
2022/05/26 01:47:01;;;;;;;;;;;;;;;9.92;100.00;96341.16;1025366;28;20010;-74
2022/05/26 01:47:38;;;;;;;;;;;;;;;9.93;100.00;96345.41;1029192;28;20701;-75
2022/05/26 01:48:22;;;;;;;;;;;;;;;9.95;100.00;96343.31;1028531;28;19965;-73
2022/05/26 01:49:02;;;;;;;;;;;;;;;9.92;100.00;96341.16;1023467;29;19986;-74
2022/05/26 01:49:38;;;;;;;;;;;;;;;9.95;100.00;96345.94;1023233;28;19918;-74
2022/05/26 01:50:15;;;;;;;;;;;;;;;9.98;100.00;96342.03;1023030;29;19918;-71
2022/05/26 01:50:53;;;;;;;;;;;;;;;9.98;100.00;96340.19;1030256;28;19966;-76
2022/05/26 01:51:23;;;;;;;;;;;;;;;9.88;100.00;96329.59;1025530;28;19918;-76
2022/05/26 01:52:02;;;;;;;;;;;;;;;9.95;100.00;96343.31;1027272;28;19918;-76
2022/05/26 01:52:55;;;;;;;;;;;;;;;9.93;100.00;96342.78;1026600;28;19980;-75
2022/05/26 01:53:32;;;;;;;;;;;;;;;9.96;100.00;96337.06;1017767;28;19975;-75
2022/05/26 01:54:16;;;;;;;;;;;;;;;9.98;100.00;96340.19;1023711;29;19937;-75
2022/05/26 01:54:57;;;;;;;;;;;;;;;9.94;100.00;96338.31;1029839;28;19925;-72
2022/05/26 01:55:30;;;;;;;;;;;;;;;9.93;100.00;96336.75;1031736;28;19916;-75
2022/05/26 01:56:12;;;;;;;;;;;;;;;9.88;100.00;96334.84;1035499;28;19910;-74
2022/05/26 01:56:44;;;;;;;;;;;;;;;9.87;100.00;96335.88;1035565;28;20375;-74
2022/05/26 01:57:16;;;;;;;;;;;;;;;9.90;100.00;96340.63;1031587;28;19906;-73
2022/05/26 01:57:51;;;;;;;;;;;;;;;9.90;100.00;96338.03;1027209;28;19911;-73
2022/05/26 01:58:41;;;;;;;;;;;;;;;9.84;100.00;96344.22;1027284;28;20739;-75
2022/05/26 01:59:12;;;;;;;;;;;;;;;9.87;100.00;96338.50;1030938;28;19910;-75
2022/05/26 01:59:46;;;;;;;;;;;;;;;9.93;100.00;96342.78;1022462;28;20471;-73
2022/05/26 02:00:17;;;;;;;;;;;;;;;9.92;100.00;96330.69;1026808;28;19906;-75
2022/05/26 02:00:47;;;;;;;;;;;;;;;9.86;100.00;96332.47;1027495;28;20396;-72
2022/05/26 02:01:22;;;;;;;;;;;;;;;9.88;100.00;96340.88;1028109;28;20376;-74
2022/05/26 02:01:59;;;;;;;;;;;;;;;9.89;100.00;96337.22;1028643;28;19914;-73
2022/05/26 02:02:30;;;;;;;;;;;;;;;9.82;100.00;96335.81;1031574;28;20477;-75
2022/05/26 02:03:05;;;;;;;;;;;;;;;9.82;100.00;96333.19;1031373;28;19917;-72
2022/05/26 02:03:35;;;;;;;;;;;;;;;9.81;100.00;96323.75;1033085;28;20005;-73
2022/05/26 02:04:09;;;;;;;;;;;;;;;9.79;100.00;96331.84;1027392;28;19918;-73
2022/05/26 02:04:40;;;;;;;;;;;;;;;9.80;100.00;96337.88;1027629;28;20065;-77
2022/05/26 02:05:14;;;;;;;;;;;;;;;9.81;100.00;96335.00;1028090;28;19933;-73
2022/05/26 02:05:49;;;;;;;;;;;;;;;9.81;100.00;96334.22;1028681;28;19906;-75
2022/05/26 02:06:32;;;;;;;;;;;;;;;9.81;100.00;96328.97;1027712;28;19917;-74
2022/05/26 02:07:21;;;;;;;;;;;;;;;9.80;100.00;96328.19;1015885;29;20284;-74
2022/05/26 02:07:54;;;;;;;;;;;;;;;9.74;100.00;96326.53;1019802;29;20388;-75
2022/05/26 02:08:29;;;;;;;;;;;;;;;9.75;100.00;96327.31;1019536;29;19911;-74
2022/05/26 02:09:07;;;;;;;;;;;;;;;9.76;100.00;96331.53;1026883;28;19915;-75
2022/05/26 02:09:41;;;;;;;;;;;;;;;9.76;100.00;96331.53;1021965;29;19962;-73
2022/05/26 02:10:21;;;;;;;;;;;;;;;9.74;100.00;96329.16;1024541;28;20653;-75
2022/05/26 02:10:52;;;;;;;;;;;;;;;9.72;100.00;96325.19;1024825;28;19969;-75
2022/05/26 02:11:22;;;;;;;;;;;;;;;9.72;100.00;96330.44;1028374;28;19907;-74
2022/05/26 02:12:03;;;;;;;;;;;;;;;9.67;100.00;96329.31;1028354;28;20005;-74
2022/05/26 02:12:41;;;;;;;;;;;;;;;9.68;100.00;96323.03;1033267;28;19996;-73
2022/05/26 02:13:12;;;;;;;;;;;;;;;9.65;100.00;96325.34;1035830;28;19917;-74
2022/05/26 02:13:44;;;;;;;;;;;;;;;9.63;100.00;96327.44;1034300;28;19913;-73
2022/05/26 02:14:17;;;;;;;;;;;;;;;9.60;100.00;96328.72;1031559;28;19931;-74
2022/05/26 02:14:49;;;;;;;;;;;;;;;9.58;100.00;96333.38;1023173;29;20323;-75
2022/05/26 02:15:24;;;;;;;;;;;;;;;9.59;100.00;96327.13;1024434;28;20420;-74
2022/05/26 02:15:55;;;;;;;;;;;;;;;9.60;100.00;96326.09;1023853;29;19916;-74
2022/05/26 02:16:31;;;;;;;;;;;;;;;9.62;100.00;96326.66;1025581;28;20474;-76
2022/05/26 02:17:07;;;;;;;;;;;;;;;9.58;100.00;96330.78;1031624;28;19909;-73
2022/05/26 02:17:39;;;;;;;;;;;;;;;9.60;100.00;96339.19;1033545;28;20415;-75
2022/05/26 02:18:14;;;;;;;;;;;;;;;9.55;100.00;96336.50;1023695;29;19914;-74
2022/05/26 02:18:47;;;;;;;;;;;;;;;9.57;100.00;96339.69;1023438;29;19917;-73
2022/05/26 02:19:23;;;;;;;;;;;;;;;9.58;100.00;96325.53;1027662;28;20451;-73
2022/05/26 02:19:54;;;;;;;;;;;;;;;9.59;100.00;96331.56;1030500;28;19958;-73
2022/05/26 02:20:32;;;;;;;;;;;;;;;9.60;100.00;96333.16;1032637;28;19914;-73
2022/05/26 02:21:13;;;;;;;;;;;;;;;9.63;100.00;96336.09;1031746;28;19961;-76
2022/05/26 02:21:47;;;;;;;;;;;;;;;9.64;100.00;96339.50;1027592;28;19914;-76
2022/05/26 02:22:20;;;;;;;;;;;;;;;9.64;100.00;96329.03;1030708;28;19910;-73
2022/05/26 02:22:56;;;;;;;;;;;;;;;9.64;100.00;96332.44;1033959;28;19976;-75
2022/05/26 02:23:28;;;;;;;;;;;;;;;9.64;100.00;96329.81;1033212;28;19918;-74
2022/05/26 02:24:06;;;;;;;;;;;;;;;9.58;100.00;96336.00;1027471;28;19926;-73
2022/05/26 02:24:36;;;;;;;;;;;;;;;9.55;100.00;96335.69;1018907;29;19919;-76
2022/05/26 02:25:16;;;;;;;;;;;;;;;9.55;100.00;96330.47;1019828;29;20384;-75
2022/05/26 02:25:48;;;;;;;;;;;;;;;9.54;100.00;96327.06;1029456;28;19920;-75
2022/05/26 02:26:18;;;;;;;;;;;;;;;9.54;100.00;96334.91;1029392;28;19919;-73
2022/05/26 02:26:49;;;;;;;;;;;;;;;9.47;100.00;96329.06;1033052;28;19967;-74
2022/05/26 02:27:19;;;;;;;;;;;;;;;9.51;100.00;96331.97;1031664;28;19922;-74
2022/05/26 02:27:53;;;;;;;;;;;;;;;9.50;100.00;96328.56;1023835;28;20576;-72
2022/05/26 02:28:23;;;;;;;;;;;;;;;9.51;100.00;96334.59;1023658;29;19925;-74
2022/05/26 02:29:52;;;;;;;;;;;;;;;9.56;100.00;96337.31;1028866;28;19918;-76
2022/05/26 02:30:24;;;;;;;;;;;;;;;9.56;100.00;96329.44;1035485;28;19968;-74
2022/05/26 02:30:55;;;;;;;;;;;;;;;9.57;100.00;96329.19;1027467;28;19914;-75
2022/05/26 02:31:26;;;;;;;;;;;;;;;9.55;100.00;96320.78;1023761;29;20383;-74
2022/05/26 02:31:57;;;;;;;;;;;;;;;9.53;100.00;96322.84;1019812;29;19921;-74
2022/05/26 02:32:35;;;;;;;;;;;;;;;9.55;100.00;96327.84;1019847;29;19914;-75
2022/05/26 02:33:07;;;;;;;;;;;;;;;9.54;100.00;96324.44;1019575;29;20792;-75
2022/05/26 02:33:38;;;;;;;;;;;;;;;9.52;100.00;96320.47;1021202;29;20361;-73
2022/05/26 02:34:08;;;;;;;;;;;;;;;9.48;100.00;96330.63;1020861;29;19915;-73
2022/05/26 02:34:41;;;;;;;;;;;;;;;9.51;100.00;96329.38;1023952;28;19907;-76
2022/05/26 02:35:14;;;;;;;;;;;;;;;9.49;100.00;96332.25;1028091;28;19925;-74
2022/05/26 02:35:46;;;;;;;;;;;;;;;9.43;100.00;96327.94;1027802;28;20650;-75
2022/05/26 02:36:16;;;;;;;;;;;;;;;9.41;100.00;96324.78;1025495;28;19983;-74
2022/05/26 02:36:46;;;;;;;;;;;;;;;9.37;100.00;96326.28;1027695;28;19913;-75
2022/05/26 02:37:17;;;;;;;;;;;;;;;9.36;100.00;96328.13;1023846;28;19911;-75
2022/05/26 02:37:49;;;;;;;;;;;;;;;9.37;100.00;96334.16;1027577;28;20404;-74
2022/05/26 02:38:23;;;;;;;;;;;;;;;9.34;100.00;96334.63;1020403;28;20401;-74
2022/05/26 02:38:53;;;;;;;;;;;;;;;9.32;100.00;96331.44;1024308;28;20005;-74
2022/05/26 02:39:23;;;;;;;;;;;;;;;9.30;100.00;96333.53;1027409;28;20319;-73
2022/05/26 02:39:54;;;;;;;;;;;;;;;9.32;100.00;96326.19;1027623;28;19914;-73
2022/05/26 02:40:24;;;;;;;;;;;;;;;9.29;100.00;96331.91;1031648;28;19918;-74
2022/05/26 02:40:54;;;;;;;;;;;;;;;9.29;100.00;96331.91;1035748;28;19906;-74
2022/05/26 02:41:25;;;;;;;;;;;;;;;9.26;100.00;96332.41;1027655;28;19910;-74
2022/05/26 02:41:55;;;;;;;;;;;;;;;9.23;100.00;96327.66;1027827;28;19915;-75
2022/05/26 02:42:25;;;;;;;;;;;;;;;9.20;100.00;96334.94;1027673;28;19945;-74
2022/05/26 02:43:10;;;;;;;;;;;;;;;9.19;100.00;96328.13;1027655;28;19910;-74
2022/05/26 02:43:40;;;;;;;;;;;;;;;9.19;100.00;96330.75;1035536;28;19938;-74
2022/05/26 02:44:10;;;;;;;;;;;;;;;9.21;100.00;96331.28;1027359;28;20043;-75
2022/05/26 02:44:41;;;;;;;;;;;;;;;9.23;100.00;96332.91;1023510;28;19910;-74
2022/05/26 02:45:11;;;;;;;;;;;;;;;9.18;100.00;96333.59;1023757;29;19942;-74
2022/05/26 02:45:46;;;;;;;;;;;;;;;9.17;100.00;96327.56;1027565;28;19913;-73
2022/05/26 02:46:23;;;;;;;;;;;;;;;9.19;100.00;96333.38;1023675;28;19907;-75
2022/05/26 02:47:12;;;;;;;;;;;;;;;9.18;100.00;96337.00;1025355;28;19917;-74
2022/05/26 02:47:46;;;;;;;;;;;;;;;9.25;100.00;96330.81;1027262;28;19906;-74
2022/05/26 02:48:25;;;;;;;;;;;;;;;9.24;100.00;96332.63;1031285;28;19913;-73
2022/05/26 02:49:03;;;;;;;;;;;;;;;9.19;100.00;96333.38;1031661;28;20335;-74
2022/05/26 02:49:33;;;;;;;;;;;;;;;9.20;100.00;96339.41;1032459;28;19910;-76
2022/05/26 02:50:26;;;;;;;;;;;;;;;9.22;100.00;96337.31;1037745;28;19910;-74
2022/05/26 02:51:16;;;;;;;;;;;;;;;9.21;100.00;96335.72;1023458;29;19910;-73
2022/05/26 02:52:04;;;;;;;;;;;;;;;9.23;100.00;96338.91;1019855;28;19911;-73
2022/05/26 02:52:40;;;;;;;;;;;;;;;9.21;100.00;96333.91;1027663;28;19917;-74
2022/05/26 02:53:20;;;;;;;;;;;;;;;9.16;100.00;96335.66;1026712;28;20295;-74
2022/05/26 02:53:50;;;;;;;;;;;;;;;9.14;100.00;96335.91;1035677;28;20370;-73
2022/05/26 02:54:23;;;;;;;;;;;;;;;9.15;100.00;96340.13;1035572;28;20013;-74
2022/05/26 02:54:59;;;;;;;;;;;;;;;9.11;100.00;96333.75;1029159;28;20017;-74
2022/05/26 02:55:29;;;;;;;;;;;;;;;9.09;100.00;96338.44;1027677;28;19925;-72
2022/05/26 02:56:09;;;;;;;;;;;;;;;9.12;100.00;96343.22;1027548;28;20715;-74
2022/05/26 02:56:59;;;;;;;;;;;;;;;9.16;100.00;96339.06;1029346;28;19984;-77
2022/05/26 02:57:29;;;;;;;;;;;;;;;9.16;100.00;96343.53;1031912;28;20281;-77
2022/05/26 02:58:02;;;;;;;;;;;;;;;9.16;100.00;96339.06;1031600;28;19922;-73
2022/05/26 02:58:35;;;;;;;;;;;;;;;9.15;100.00;96339.31;1033317;28;19924;-73